createdAt,value
2022-10-12T00:01:29.800Z,5.47
2022-10-12T00:03:51.753Z,5.44
2022-10-12T00:06:18.878Z,5.49
2022-10-12T00:08:41.803Z,5.27
2022-10-12T00:11:04.534Z,5.24
2022-10-12T00:13:26.408Z,5.10
2022-10-12T00:15:47.970Z,5.01
2022-10-12T00:18:09.455Z,5.15
2022-10-12T00:20:30.993Z,5.21
2022-10-12T00:22:52.450Z,5.23
2022-10-12T00:25:13.941Z,5.25
2022-10-12T00:27:35.869Z,5.31
2022-10-12T00:29:57.517Z,5.34
2022-10-12T00:32:19.003Z,5.25
2022-10-12T00:34:40.467Z,5.22
2022-10-12T00:37:01.965Z,5.26
2022-10-12T00:39:23.442Z,5.12
2022-10-12T00:41:45.077Z,5.18
2022-10-12T00:44:40.596Z,5.19
2022-10-12T00:47:25.256Z,5.28
2022-10-12T00:50:15.106Z,5.32
2022-10-12T00:52:46.910Z,5.22
2022-10-12T00:55:10.477Z,5.07
2022-10-12T00:57:32.017Z,4.93
2022-10-12T01:00:05.567Z,4.92
2022-10-12T01:02:29.800Z,4.99
2022-10-12T01:04:51.742Z,5.00
2022-10-12T01:07:14.217Z,4.99
2022-10-12T01:09:35.685Z,5.09
2022-10-12T01:11:57.988Z,5.10
2022-10-12T01:14:19.951Z,4.98
2022-10-12T01:16:54.988Z,4.95
2022-10-12T01:19:28.438Z,4.98
2022-10-12T01:22:00.986Z,4.99
2022-10-12T01:24:38.602Z,4.89
2022-10-12T01:27:24.834Z,4.76
2022-10-12T01:30:06.349Z,4.78
2022-10-12T01:32:54.660Z,4.55
2022-10-12T01:35:22.550Z,4.72
2022-10-12T01:38:23.593Z,4.77
2022-10-12T01:40:55.406Z,4.76
2022-10-12T01:43:23.615Z,4.76
2022-10-12T01:45:45.109Z,4.55
2022-10-12T01:48:07.530Z,4.46
2022-10-12T01:50:43.769Z,4.48
2022-10-12T01:53:13.795Z,4.61
2022-10-12T01:55:52.828Z,4.68
2022-10-12T01:58:34.460Z,4.71
2022-10-12T02:01:29.677Z,4.79
2022-10-12T02:04:00.690Z,4.65
2022-10-12T02:06:28.670Z,4.52
2022-10-12T02:09:26.306Z,4.38
2022-10-12T02:11:52.271Z,4.45
2022-10-12T02:14:21.277Z,4.47
2022-10-12T02:16:49.860Z,4.52
2022-10-12T02:19:17.224Z,4.57
2022-10-12T02:21:40.243Z,4.60
2022-10-12T02:24:06.505Z,4.38
2022-10-12T02:26:29.995Z,4.38
2022-10-12T02:28:51.666Z,4.45
2022-10-12T02:31:37.934Z,4.54
2022-10-12T02:34:12.987Z,4.48
2022-10-12T02:36:40.343Z,4.57
2022-10-12T02:39:09.460Z,4.40
2022-10-12T02:41:46.550Z,4.45
2022-10-12T02:44:12.765Z,4.43
2022-10-12T02:46:35.952Z,4.39
2022-10-12T02:48:59.441Z,4.47
2022-10-12T02:51:22.052Z,4.46
2022-10-12T02:53:45.197Z,4.56
2022-10-12T02:56:11.206Z,4.46
2022-10-12T02:58:32.803Z,4.37
2022-10-12T03:00:54.318Z,4.43
2022-10-12T03:03:15.878Z,4.44
2022-10-12T03:05:37.449Z,4.50
2022-10-12T03:07:58.926Z,4.54
2022-10-12T03:10:20.396Z,4.43
2022-10-12T03:12:44.386Z,4.45
2022-10-12T03:15:08.388Z,4.44
2022-10-12T03:17:29.891Z,4.41
2022-10-12T03:19:51.350Z,4.19
2022-10-12T03:22:12.855Z,4.20
2022-10-12T03:24:34.326Z,4.26
2022-10-12T03:26:55.845Z,4.29
2022-10-12T03:29:17.518Z,4.30
2022-10-12T03:31:38.998Z,4.26
2022-10-12T03:34:00.585Z,4.24
2022-10-12T03:36:22.080Z,4.17
2022-10-12T03:38:43.558Z,4.20
2022-10-12T03:41:06.841Z,4.34
2022-10-12T03:43:28.485Z,4.26
2022-10-12T03:45:49.999Z,4.12
2022-10-12T03:48:11.503Z,4.17
2022-10-12T03:50:35.033Z,4.34
2022-10-12T03:52:56.571Z,4.33
2022-10-12T03:55:18.019Z,4.19
2022-10-12T03:57:40.095Z,4.15
2022-10-12T04:00:02.111Z,4.08
2022-10-12T04:02:23.694Z,4.12
2022-10-12T04:04:45.137Z,4.14
2022-10-12T04:07:06.947Z,4.18
2022-10-12T04:09:28.404Z,4.13
2022-10-12T04:11:49.864Z,4.12
2022-10-12T04:14:11.324Z,4.10
2022-10-12T04:16:32.830Z,3.94
2022-10-12T04:18:54.316Z,3.89
2022-10-12T04:21:17.041Z,3.98
2022-10-12T04:23:38.624Z,3.97
2022-10-12T04:26:00.114Z,4.05
2022-10-12T04:28:21.607Z,4.04
2022-10-12T04:30:43.179Z,4.02
2022-10-12T04:33:05.651Z,3.89
2022-10-12T04:35:27.167Z,3.89
2022-10-12T04:37:48.632Z,3.94
2022-10-12T04:40:10.307Z,3.95
2022-10-12T04:42:31.771Z,4.02
2022-10-12T04:44:53.283Z,3.98
2022-10-12T04:47:14.737Z,3.92
2022-10-12T04:49:36.256Z,3.95
2022-10-12T04:51:57.785Z,3.96
2022-10-12T04:54:19.322Z,3.93
2022-10-12T04:56:45.412Z,3.96
2022-10-12T04:59:09.099Z,3.86
2022-10-12T05:01:30.859Z,3.81
2022-10-12T05:03:52.384Z,3.89
2022-10-12T05:06:14.068Z,3.85
2022-10-12T05:08:35.589Z,3.85
2022-10-12T05:10:59.238Z,3.90
2022-10-12T05:13:20.707Z,3.69
2022-10-12T05:15:43.214Z,3.77
2022-10-12T05:18:05.040Z,3.76
2022-10-12T05:20:26.646Z,3.78
2022-10-12T05:22:48.194Z,3.81
2022-10-12T05:25:10.037Z,3.77
2022-10-12T05:27:31.604Z,3.65
2022-10-12T05:29:53.129Z,3.63
2022-10-12T05:32:15.485Z,3.73
2022-10-12T05:34:36.961Z,3.75
2022-10-12T05:36:58.427Z,3.66
2022-10-12T05:39:19.936Z,3.39
2022-10-12T05:41:41.441Z,3.45
2022-10-12T05:44:02.923Z,3.58
2022-10-12T05:46:24.381Z,3.63
2022-10-12T05:48:45.868Z,3.70
2022-10-12T05:51:07.363Z,3.80
2022-10-12T05:53:28.893Z,3.70
2022-10-12T05:55:58.895Z,3.47
2022-10-12T05:58:20.406Z,3.58
2022-10-12T06:00:41.907Z,3.64
2022-10-12T06:03:03.523Z,3.76
2022-10-12T06:05:25.656Z,3.80
2022-10-12T06:07:47.116Z,3.69
2022-10-12T06:10:09.018Z,3.70
2022-10-12T06:12:30.566Z,3.69
2022-10-12T06:14:52.648Z,3.67
2022-10-12T06:17:14.133Z,3.66
2022-10-12T06:19:36.653Z,3.73
2022-10-12T06:21:58.546Z,3.69
2022-10-12T06:24:20.051Z,3.80
2022-10-12T06:26:41.533Z,3.90
2022-10-12T06:29:03.390Z,4.00
2022-10-12T06:31:24.877Z,4.00
2022-10-12T06:33:46.403Z,3.91
2022-10-12T06:36:07.917Z,3.83
2022-10-12T06:38:29.398Z,3.88
2022-10-12T06:40:51.012Z,3.96
2022-10-12T06:43:12.972Z,4.08
2022-10-12T06:45:34.704Z,4.11
2022-10-12T06:47:57.334Z,4.08
2022-10-12T06:50:18.879Z,4.21
2022-10-12T06:52:40.679Z,4.26
2022-10-12T06:55:02.939Z,4.37
2022-10-12T06:57:24.396Z,4.45
2022-10-12T06:59:46.035Z,4.48
2022-10-12T07:02:10.797Z,4.49
2022-10-12T07:04:32.316Z,4.52
2022-10-12T07:06:53.801Z,4.62
2022-10-12T07:09:16.853Z,4.75
2022-10-12T07:11:38.363Z,4.78
2022-10-12T07:13:59.877Z,4.86
2022-10-12T07:16:21.369Z,4.90
2022-10-12T07:18:42.818Z,4.97
2022-10-12T07:21:04.520Z,5.08
2022-10-12T07:23:26.998Z,5.11
2022-10-12T07:25:49.799Z,5.19
2022-10-12T07:28:11.311Z,5.29
2022-10-12T07:30:36.173Z,5.29
2022-10-12T07:32:57.737Z,5.42
2022-10-12T07:35:19.229Z,5.54
2022-10-12T07:37:41.228Z,5.59
2022-10-12T07:40:03.558Z,5.71
2022-10-12T07:42:25.439Z,5.83
2022-10-12T07:44:46.923Z,5.94
2022-10-12T07:47:08.420Z,5.94
2022-10-12T07:49:29.938Z,6.00
2022-10-12T07:51:51.435Z,6.07
2022-10-12T07:54:18.990Z,6.21
2022-10-12T07:56:42.156Z,6.27
2022-10-12T07:59:04.251Z,6.27
2022-10-12T08:01:29.902Z,6.41
2022-10-12T08:03:53.806Z,6.52
2022-10-12T08:06:20.063Z,6.67
2022-10-12T08:08:42.306Z,6.77
2022-10-12T08:11:04.596Z,7.00
2022-10-12T08:13:26.072Z,7.18
2022-10-12T08:15:50.817Z,7.29
2022-10-12T08:18:12.305Z,7.39
2022-10-12T08:20:33.739Z,7.59
2022-10-12T08:22:55.367Z,7.61
2022-10-12T08:25:16.814Z,7.72
2022-10-12T08:31:20.044Z,8.13
2022-10-12T08:33:41.620Z,8.28
2022-10-12T08:36:05.389Z,8.41
2022-10-12T08:38:26.850Z,8.68
2022-10-12T08:40:57.525Z,8.67
2022-10-12T08:43:34.276Z,8.81
2022-10-12T08:46:02.730Z,9.09
2022-10-12T08:48:30.353Z,9.13
2022-10-12T08:50:58.922Z,9.43
2022-10-12T08:53:26.877Z,9.50
2022-10-12T08:55:48.835Z,9.72
2022-10-12T08:58:20.682Z,10.08
2022-10-12T09:00:44.276Z,10.07
2022-10-12T09:03:37.055Z,10.16
2022-10-12T09:06:10.652Z,10.43
2022-10-12T09:08:44.913Z,10.67
2022-10-12T09:11:24.814Z,10.70
2022-10-12T09:14:24.865Z,10.84
2022-10-12T09:16:48.616Z,11.03
2022-10-12T09:19:22.011Z,11.17
2022-10-12T09:21:46.866Z,11.54
2022-10-12T09:24:19.060Z,11.82
2022-10-12T09:26:40.905Z,11.92
2022-10-12T09:29:13.291Z,12.06
2022-10-12T09:31:51.969Z,12.26
2022-10-12T09:34:16.834Z,12.34
2022-10-12T09:36:42.060Z,12.20
2022-10-12T09:39:07.434Z,12.29
2022-10-12T09:41:40.668Z,12.51
2022-10-12T09:44:04.280Z,12.71
2022-10-12T09:46:40.107Z,12.92
2022-10-12T09:49:01.654Z,12.97
2022-10-12T09:51:23.274Z,12.98
2022-10-12T09:53:49.980Z,13.31
2022-10-12T09:56:25.907Z,13.28
2022-10-12T09:58:52.363Z,13.54
2022-10-12T10:01:26.635Z,13.73
2022-10-12T10:03:52.127Z,13.76
2022-10-12T10:06:15.379Z,13.81
2022-10-12T10:08:43.234Z,13.95
2022-10-12T10:11:05.176Z,14.01
2022-10-12T10:13:29.556Z,14.12
2022-10-12T10:16:01.583Z,14.35
2022-10-12T10:18:39.093Z,14.36
2022-10-12T10:21:04.571Z,14.50
2022-10-12T10:23:31.430Z,14.78
2022-10-12T10:26:05.477Z,14.67
2022-10-12T10:28:32.518Z,14.73
2022-10-12T10:31:02.397Z,15.03
2022-10-12T10:33:23.878Z,14.98
2022-10-12T10:35:59.572Z,15.11
2022-10-12T10:38:21.087Z,15.33
2022-10-12T10:40:42.607Z,15.35
2022-10-12T10:43:07.085Z,15.38
2022-10-12T10:45:33.265Z,15.42
2022-10-12T10:48:01.402Z,15.61
2022-10-12T10:50:27.259Z,15.77
2022-10-12T10:52:57.545Z,15.86
2022-10-12T10:55:23.391Z,16.15
2022-10-12T10:58:03.335Z,16.26
2022-10-12T11:00:41.127Z,16.30
2022-10-12T11:03:34.881Z,16.28
2022-10-12T11:06:20.337Z,16.31
2022-10-12T11:08:44.441Z,16.28
2022-10-12T11:11:17.541Z,16.49
2022-10-12T11:13:44.066Z,16.51
2022-10-12T11:16:10.714Z,16.52
2022-10-12T11:18:45.027Z,16.57
2022-10-12T11:21:18.291Z,16.74
2022-10-12T11:23:51.809Z,17.04
2022-10-12T11:26:16.170Z,17.39
2022-10-12T11:28:39.175Z,17.78
2022-10-12T11:31:02.104Z,17.78
2022-10-12T11:33:35.190Z,17.97
2022-10-12T11:35:58.743Z,18.08
2022-10-12T11:38:24.254Z,18.46
2022-10-12T11:41:13.851Z,18.59
2022-10-12T11:43:47.889Z,18.70
2022-10-12T11:46:14.476Z,18.69
2022-10-12T11:49:22.629Z,18.95
2022-10-12T11:51:47.951Z,18.92
2022-10-12T11:54:36.308Z,19.33
2022-10-12T11:57:04.663Z,19.36
2022-10-12T11:59:43.405Z,19.64
2022-10-12T12:02:27.394Z,19.64
2022-10-12T12:04:49.988Z,19.60
2022-10-12T12:07:44.598Z,20.11
2022-10-12T12:10:34.880Z,20.69
2022-10-12T12:13:12.827Z,20.92
2022-10-12T12:15:34.342Z,20.98
2022-10-12T12:18:15.089Z,21.48
2022-10-12T12:20:43.050Z,21.52
2022-10-12T12:23:04.578Z,21.53
2022-10-12T12:25:31.051Z,21.60
2022-10-12T12:28:05.435Z,21.50
2022-10-12T12:30:37.131Z,21.23
2022-10-12T12:33:05.859Z,21.24
2022-10-12T12:35:38.733Z,21.57
2022-10-12T12:38:24.569Z,21.63
2022-10-12T12:40:58.182Z,21.58
2022-10-12T12:43:28.563Z,21.53
2022-10-12T12:46:11.404Z,21.58
2022-10-12T12:48:39.100Z,21.77
2022-10-12T12:51:03.239Z,21.81
2022-10-12T12:53:24.885Z,21.78
2022-10-12T12:55:52.393Z,21.54
2022-10-12T12:58:29.541Z,21.18
2022-10-12T13:01:05.243Z,20.57
2022-10-12T13:03:54.966Z,20.37
2022-10-12T13:06:41.111Z,20.07
2022-10-12T13:09:15.742Z,20.05
2022-10-12T13:12:10.898Z,20.05
2022-10-12T13:14:38.126Z,20.11
2022-10-12T13:19:56.667Z,20.40
2022-10-12T13:22:29.394Z,20.28
2022-10-12T13:24:57.189Z,20.20
2022-10-12T13:27:34.374Z,20.06
2022-10-12T13:30:15.351Z,19.83
2022-10-12T13:32:51.600Z,19.86
2022-10-12T13:35:36.742Z,19.86
2022-10-12T13:38:06.653Z,19.91
2022-10-12T13:40:37.924Z,19.87
2022-10-12T13:43:28.634Z,19.70
2022-10-12T13:45:50.554Z,19.58
2022-10-12T13:48:34.106Z,19.46
2022-10-12T13:51:03.943Z,19.45
2022-10-12T13:53:33.659Z,19.45
2022-10-12T13:56:06.023Z,19.32
2022-10-12T13:58:31.453Z,19.22
2022-10-12T14:00:53.090Z,19.12
2022-10-12T14:03:14.651Z,18.94
2022-10-12T14:05:43.957Z,18.92
2022-10-12T14:08:32.459Z,18.91
2022-10-12T14:10:57.614Z,18.88
2022-10-12T14:13:33.975Z,18.91
2022-10-12T14:15:56.715Z,19.03
2022-10-12T14:18:37.581Z,18.84
2022-10-12T14:21:19.781Z,18.96
2022-10-12T14:23:44.040Z,18.89
2022-10-12T14:26:18.697Z,18.98
2022-10-12T14:28:40.259Z,19.20
2022-10-12T14:31:01.858Z,19.25
2022-10-12T14:33:24.968Z,19.39
2022-10-12T14:35:49.233Z,19.45
2022-10-12T14:38:38.330Z,19.42
2022-10-12T14:41:28.680Z,19.67
2022-10-12T14:44:10.461Z,19.75
2022-10-12T14:46:32.394Z,19.98
2022-10-12T14:48:53.897Z,20.08
2022-10-12T14:51:18.383Z,20.27
2022-10-12T14:53:40.322Z,20.42
2022-10-12T14:56:01.768Z,20.49
2022-10-12T14:58:23.265Z,20.65
2022-10-12T15:00:45.008Z,20.70
2022-10-12T15:03:06.666Z,20.79
2022-10-12T15:05:31.839Z,20.81
2022-10-12T15:07:53.354Z,20.78
2022-10-12T15:10:16.736Z,20.71
2022-10-12T15:12:38.512Z,20.40
2022-10-12T15:15:01.759Z,20.41
2022-10-12T15:17:23.302Z,20.33
2022-10-12T15:19:46.460Z,20.29
2022-10-12T15:22:14.346Z,20.19
2022-10-12T15:24:35.840Z,20.17
2022-10-12T15:26:57.313Z,20.16
2022-10-12T15:29:18.815Z,20.16
2022-10-12T15:31:40.341Z,20.08
2022-10-12T15:34:01.905Z,20.05
2022-10-12T15:36:23.358Z,19.99
2022-10-12T15:38:44.852Z,19.94
2022-10-12T15:41:14.566Z,19.83
2022-10-12T15:43:38.215Z,19.73
2022-10-12T15:46:02.630Z,19.65
2022-10-12T15:48:24.135Z,19.47
2022-10-12T15:50:49.813Z,19.37
2022-10-12T15:53:16.554Z,19.37
2022-10-12T15:55:38.175Z,19.25
2022-10-12T15:57:59.976Z,19.16
2022-10-12T16:00:23.708Z,19.09
2022-10-12T16:02:45.589Z,18.94
2022-10-12T16:05:17.743Z,18.83
2022-10-12T16:07:39.381Z,18.59
2022-10-12T16:10:00.851Z,18.43
2022-10-12T16:12:22.349Z,18.39
2022-10-12T16:14:43.804Z,18.10
2022-10-12T16:17:05.290Z,18.09
2022-10-12T16:19:26.782Z,18.03
2022-10-12T16:21:48.542Z,17.91
2022-10-12T16:24:10.022Z,17.85
2022-10-12T16:26:31.491Z,17.71
2022-10-12T16:28:53.174Z,17.46
2022-10-12T16:31:17.794Z,17.20
2022-10-12T16:33:41.394Z,17.10
2022-10-12T16:36:08.550Z,17.06
2022-10-12T16:38:30.047Z,17.04
2022-10-12T16:40:51.560Z,17.03
2022-10-12T16:43:13.057Z,16.98
2022-10-12T16:45:34.710Z,16.87
2022-10-12T16:47:56.261Z,16.73
2022-10-12T16:50:19.332Z,16.64
2022-10-12T16:52:40.828Z,16.57
2022-10-12T16:55:02.358Z,16.46
2022-10-12T16:57:24.139Z,16.38
2022-10-12T16:59:46.656Z,16.28
2022-10-12T17:02:11.109Z,16.27
2022-10-12T17:04:33.175Z,16.13
2022-10-12T17:06:54.986Z,15.88
2022-10-12T17:09:16.557Z,15.86
2022-10-12T17:11:39.867Z,15.83
2022-10-12T17:14:03.908Z,15.80
2022-10-12T17:16:43.695Z,15.67
2022-10-12T17:19:05.378Z,15.69
2022-10-12T17:21:27.846Z,15.68
2022-10-12T17:23:49.854Z,15.63
2022-10-12T17:26:11.364Z,15.57
2022-10-12T17:28:37.506Z,15.50
2022-10-12T17:31:07.976Z,15.35
2022-10-12T17:33:32.721Z,15.20
2022-10-12T17:35:54.202Z,15.05
2022-10-12T17:38:15.676Z,14.97
2022-10-12T17:40:39.289Z,14.98
2022-10-12T17:43:00.783Z,14.96
2022-10-12T17:45:22.254Z,14.91
2022-10-12T17:47:43.850Z,14.84
2022-10-12T17:50:05.933Z,14.79
2022-10-12T17:52:27.525Z,14.67
2022-10-12T17:54:49.035Z,14.65
2022-10-12T17:57:10.636Z,14.67
2022-10-12T17:59:32.186Z,14.47
2022-10-12T18:01:54.498Z,14.22
2022-10-12T18:04:16.190Z,14.24
2022-10-12T18:06:38.342Z,14.15
2022-10-12T18:09:01.711Z,14.08
2022-10-12T18:11:24.137Z,13.90
2022-10-12T18:13:51.552Z,13.95
2022-10-12T18:16:13.239Z,13.97
2022-10-12T18:18:34.758Z,13.96
2022-10-12T18:20:56.278Z,13.89
2022-10-12T18:23:17.829Z,13.61
2022-10-12T18:25:40.903Z,13.53
2022-10-12T18:28:02.400Z,13.53
2022-10-12T18:30:23.916Z,13.44
2022-10-12T18:32:45.402Z,13.45
2022-10-12T18:35:07.235Z,13.46
2022-10-12T18:37:28.706Z,13.43
2022-10-12T18:39:50.187Z,13.33
2022-10-12T18:42:11.676Z,13.17
2022-10-12T18:44:33.169Z,13.24
2022-10-12T18:46:54.737Z,13.27
2022-10-12T18:49:16.599Z,13.20
2022-10-12T18:51:40.818Z,12.94
2022-10-12T18:54:03.557Z,12.97
2022-10-12T18:56:25.769Z,13.01
2022-10-12T18:58:47.388Z,12.96
2022-10-12T19:01:14.649Z,12.72
2022-10-12T19:03:36.218Z,12.82
2022-10-12T19:06:09.877Z,12.79
2022-10-12T19:08:31.453Z,12.64
2022-10-12T19:10:52.954Z,12.57
2022-10-12T19:13:14.486Z,12.62
2022-10-12T19:15:37.350Z,12.56
2022-10-12T19:17:58.848Z,12.48
2022-10-12T19:20:20.417Z,12.31
2022-10-12T19:22:41.984Z,12.38
2022-10-12T19:25:03.770Z,12.33
2022-10-12T19:27:25.364Z,12.27
2022-10-12T19:29:47.242Z,12.29
2022-10-12T19:32:08.747Z,12.19
2022-10-12T19:34:30.640Z,12.29
2022-10-12T19:36:52.430Z,12.29
2022-10-12T19:39:17.226Z,12.17
2022-10-12T19:41:38.803Z,12.14
2022-10-12T19:44:01.596Z,12.10
2022-10-12T19:46:23.453Z,11.94
2022-10-12T19:48:50.092Z,12.05
2022-10-12T19:51:13.365Z,12.04
2022-10-12T19:53:35.166Z,12.07
2022-10-12T19:56:06.087Z,11.97
2022-10-12T19:58:28.766Z,11.79
2022-10-12T20:00:50.252Z,11.81
2022-10-12T20:03:11.828Z,11.69
2022-10-12T20:05:34.329Z,11.63
2022-10-12T20:07:55.895Z,11.52
2022-10-12T20:10:17.587Z,11.36
2022-10-12T20:12:39.054Z,11.40
2022-10-12T20:15:00.585Z,11.40
2022-10-12T20:17:22.064Z,11.26
2022-10-12T20:19:43.591Z,11.29
2022-10-12T20:22:05.063Z,11.34
2022-10-12T20:24:26.559Z,11.38
2022-10-12T20:26:48.065Z,11.40
2022-10-12T20:29:09.574Z,11.24
2022-10-12T20:31:31.118Z,11.27
2022-10-12T20:33:53.592Z,11.15
2022-10-12T20:36:21.453Z,11.11
2022-10-12T20:38:43.816Z,10.86
2022-10-12T20:41:10.976Z,11.08
2022-10-12T20:43:32.706Z,11.02
2022-10-12T20:45:54.190Z,11.17
2022-10-12T20:48:15.685Z,10.81
2022-10-12T20:50:37.441Z,10.84
2022-10-12T20:52:58.916Z,10.87
2022-10-12T20:55:20.893Z,10.86
2022-10-12T20:57:42.388Z,10.94
2022-10-12T21:00:05.970Z,10.97
2022-10-12T21:02:27.430Z,10.91
2022-10-12T21:04:49.539Z,10.91
2022-10-12T21:07:15.624Z,10.92
2022-10-12T21:09:37.088Z,10.88
2022-10-12T21:11:58.586Z,10.57
2022-10-12T21:14:20.174Z,10.57
2022-10-12T21:16:41.803Z,10.58
2022-10-12T21:19:03.592Z,10.55
2022-10-12T21:21:25.346Z,10.55
2022-10-12T21:23:58.306Z,10.37
2022-10-12T21:26:22.027Z,10.27
2022-10-12T21:28:44.495Z,10.31
2022-10-12T21:31:06.473Z,10.42
2022-10-12T21:33:28.440Z,10.26
2022-10-12T21:35:49.892Z,10.19
2022-10-12T21:38:11.419Z,10.27
2022-10-12T21:40:33.846Z,10.27
2022-10-12T21:42:55.321Z,10.28
2022-10-12T21:45:16.771Z,10.11
2022-10-12T21:47:38.291Z,10.08
2022-10-12T21:49:59.757Z,10.17
2022-10-12T21:52:21.488Z,10.05
2022-10-12T21:54:43.118Z,9.93
2022-10-12T21:57:04.589Z,10.00
2022-10-12T22:04:18.217Z,10.07
2022-10-12T22:06:40.370Z,10.03
2022-10-12T22:09:05.279Z,10.02
2022-10-12T22:11:28.444Z,9.83
2022-10-12T22:13:50.306Z,9.66
2022-10-12T22:16:15.057Z,9.73
2022-10-12T22:18:36.849Z,9.85
2022-10-12T22:21:02.608Z,9.84
2022-10-12T22:23:24.103Z,9.82
2022-10-12T22:25:45.564Z,9.89
2022-10-12T22:28:07.061Z,10.00
2022-10-12T22:30:28.562Z,10.06
2022-10-12T22:32:50.105Z,10.10
2022-10-12T22:35:11.629Z,9.91
2022-10-12T22:37:33.116Z,9.96
2022-10-12T22:39:54.556Z,10.00
2022-10-12T22:42:16.678Z,10.07
2022-10-12T22:44:38.438Z,10.14
2022-10-12T22:46:59.942Z,10.11
2022-10-12T22:49:21.514Z,10.12
2022-10-12T22:51:43.039Z,10.06
2022-10-12T22:54:05.393Z,10.00
2022-10-12T22:56:27.080Z,10.10
2022-10-12T22:58:54.176Z,10.02
2022-10-12T23:01:17.584Z,9.95
2022-10-12T23:03:39.704Z,9.86
2022-10-12T23:06:01.171Z,9.92
2022-10-12T23:08:22.811Z,9.97
2022-10-12T23:10:44.290Z,9.95
2022-10-12T23:13:05.790Z,9.77
2022-10-12T23:15:27.241Z,9.84
2022-10-12T23:17:48.717Z,9.92
2022-10-12T23:20:10.518Z,10.02
2022-10-12T23:22:32.224Z,9.92
2022-10-12T23:24:53.784Z,9.79
2022-10-12T23:27:15.467Z,9.72
2022-10-12T23:29:36.926Z,9.78
2022-10-12T23:31:58.394Z,9.80
2022-10-12T23:34:19.846Z,9.81
2022-10-12T23:36:41.417Z,9.87
2022-10-12T23:39:05.322Z,9.89
2022-10-12T23:41:26.911Z,9.96
2022-10-12T23:43:48.433Z,10.00
2022-10-12T23:46:11.626Z,9.82
2022-10-12T23:48:33.374Z,9.85
2022-10-12T23:50:54.985Z,9.76
2022-10-12T23:53:16.461Z,9.81
2022-10-12T23:55:37.932Z,9.78
2022-10-12T23:57:59.475Z,9.80
